createdAt,value
2019-04-29T00:02:37.761Z,12.18
2019-04-29T00:05:11.105Z,12.23
2019-04-29T00:07:44.313Z,10.58
2019-04-29T00:10:21.821Z,12.80
2019-04-29T00:12:54.780Z,11.33
2019-04-29T00:16:04.651Z,11.40
2019-04-29T00:19:02.469Z,10.78
2019-04-29T00:21:35.645Z,10.03
2019-04-29T00:24:08.697Z,11.95
2019-04-29T00:26:41.713Z,11.48
2019-04-29T00:29:15.398Z,10.38
2019-04-29T00:31:48.510Z,10.78
2019-04-29T00:34:21.441Z,9.93
2019-04-29T00:37:07.766Z,10.93
2019-04-29T00:40:17.640Z,9.55
2019-04-29T00:43:00.620Z,6.42
2019-04-29T00:45:33.703Z,8.63
2019-04-29T00:48:06.705Z,9.78
2019-04-29T00:50:39.678Z,9.45
2019-04-29T00:53:12.858Z,7.55
2019-04-29T00:55:55.011Z,7.00
2019-04-29T00:58:28.085Z,7.67
2019-04-29T01:01:01.100Z,7.67
2019-04-29T01:03:34.267Z,9.40
2019-04-29T01:06:07.232Z,8.45
2019-04-29T01:08:40.369Z,5.92
2019-04-29T01:11:13.203Z,5.35
2019-04-29T01:13:46.026Z,7.33
2019-04-29T01:16:20.374Z,8.20
2019-04-29T01:18:53.230Z,6.10
2019-04-29T01:21:27.062Z,9.65
2019-04-29T01:23:59.865Z,8.33
2019-04-29T01:27:06.545Z,6.65
2019-04-29T01:29:39.618Z,7.35
2019-04-29T01:32:12.656Z,8.65
2019-04-29T01:34:53.781Z,8.25
2019-04-29T01:37:40.768Z,7.95
2019-04-29T01:40:51.361Z,8.33
2019-04-29T01:43:25.997Z,5.53
2019-04-29T01:45:58.893Z,6.53
2019-04-29T01:48:31.770Z,7.05
2019-04-29T01:51:04.685Z,7.87
2019-04-29T01:53:37.503Z,7.00
2019-04-29T01:56:10.365Z,5.40
2019-04-29T01:58:43.257Z,5.22
2019-04-29T02:01:16.259Z,6.37
2019-04-29T02:03:49.171Z,5.90
2019-04-29T02:06:22.081Z,6.20
2019-04-29T02:08:55.991Z,6.70
2019-04-29T02:11:29.047Z,4.78
2019-04-29T02:14:01.932Z,6.03
2019-04-29T02:16:34.774Z,6.10
2019-04-29T02:19:07.810Z,6.60
2019-04-29T02:21:42.374Z,5.65
2019-04-29T02:24:17.743Z,6.03
2019-04-29T02:26:51.603Z,6.17
2019-04-29T02:29:24.522Z,6.97
2019-04-29T02:31:57.461Z,6.00
2019-04-29T02:34:30.495Z,6.78
2019-04-29T02:37:05.126Z,6.12
2019-04-29T02:39:43.407Z,6.78
2019-04-29T02:42:41.330Z,7.33
2019-04-29T02:45:20.132Z,7.10
2019-04-29T02:47:53.020Z,6.72
2019-04-29T02:50:26.044Z,4.75
2019-04-29T02:52:59.044Z,6.25
2019-04-29T02:55:36.650Z,6.47
2019-04-29T02:58:28.435Z,7.37
2019-04-29T03:01:09.002Z,6.87
2019-04-29T03:03:59.551Z,7.22
2019-04-29T03:06:32.400Z,7.37
2019-04-29T03:09:07.005Z,7.37
2019-04-29T03:11:40.030Z,7.92
2019-04-29T03:14:12.854Z,7.95
2019-04-29T03:16:45.988Z,8.40
2019-04-29T03:19:24.091Z,7.05
2019-04-29T03:21:58.698Z,9.20
2019-04-29T03:24:31.744Z,9.95
2019-04-29T03:27:04.756Z,8.45
2019-04-29T03:29:37.800Z,8.80
2019-04-29T03:32:10.707Z,8.78
2019-04-29T03:34:43.869Z,8.30
2019-04-29T03:37:16.774Z,8.90
2019-04-29T03:39:49.761Z,10.08
2019-04-29T03:42:22.677Z,11.50
2019-04-29T03:44:55.563Z,7.12
2019-04-29T03:47:28.577Z,11.73
2019-04-29T03:50:01.529Z,10.32
2019-04-29T03:52:34.567Z,10.05
2019-04-29T03:55:07.769Z,10.68
2019-04-29T03:57:40.642Z,10.43
2019-04-29T04:00:15.317Z,13.90
2019-04-29T04:02:55.839Z,13.65
2019-04-29T04:05:47.544Z,23.38
2019-04-29T04:08:39.322Z,22.40
2019-04-29T04:11:12.418Z,40.08
2019-04-29T04:13:45.463Z,18.75
2019-04-29T04:16:36.054Z,36.38
2019-04-29T04:19:10.123Z,39.18
2019-04-29T04:21:42.968Z,14.25
2019-04-29T04:24:15.809Z,12.95
2019-04-29T04:26:48.741Z,13.70
2019-04-29T04:29:21.982Z,13.18
2019-04-29T04:31:54.842Z,13.45
2019-04-29T04:34:27.688Z,12.50
2019-04-29T04:37:00.647Z,17.20
2019-04-29T04:39:35.319Z,15.10
2019-04-29T04:42:08.340Z,14.60
2019-04-29T04:44:50.390Z,12.82
2019-04-29T04:47:23.393Z,14.93
2019-04-29T04:49:56.352Z,17.50
2019-04-29T04:52:30.782Z,17.45
2019-04-29T04:55:03.819Z,17.42
2019-04-29T04:57:37.614Z,15.80
2019-04-29T05:00:19.783Z,14.55
2019-04-29T05:02:51.064Z,17.50
2019-04-29T05:05:24.079Z,17.48
2019-04-29T05:07:56.958Z,18.42
2019-04-29T05:10:29.841Z,14.28
2019-04-29T05:13:03.031Z,18.98
2019-04-29T05:15:36.152Z,13.13
2019-04-29T05:18:10.082Z,19.57
2019-04-29T05:20:44.152Z,18.42
2019-04-29T05:23:17.142Z,19.05
2019-04-29T05:25:50.052Z,13.75
2019-04-29T05:28:23.066Z,13.93
2019-04-29T05:30:55.903Z,17.73
2019-04-29T05:33:29.052Z,17.67
2019-04-29T05:36:16.299Z,19.60
2019-04-29T05:39:07.943Z,15.58
2019-04-29T05:41:40.877Z,17.37
2019-04-29T05:44:26.324Z,18.82
2019-04-29T05:47:06.346Z,18.77
2019-04-29T05:49:46.771Z,18.07
2019-04-29T05:52:30.327Z,19.05
2019-04-29T05:55:04.697Z,15.25
2019-04-29T05:57:37.596Z,18.07
2019-04-29T06:00:10.875Z,17.32
2019-04-29T06:02:45.231Z,14.68
2019-04-29T06:05:18.193Z,18.40
2019-04-29T06:07:51.719Z,17.40
2019-04-29T06:10:24.873Z,21.02
2019-04-29T06:12:57.881Z,19.40
2019-04-29T06:15:33.540Z,19.15
2019-04-29T06:18:06.681Z,18.85
2019-04-29T06:20:39.749Z,23.67
2019-04-29T06:23:12.758Z,20.00
2019-04-29T06:25:46.095Z,26.45
2019-04-29T06:28:21.792Z,19.48
2019-04-29T06:30:54.134Z,13.55
2019-04-29T06:33:28.978Z,19.45
2019-04-29T06:36:02.257Z,16.00
2019-04-29T06:38:35.313Z,19.20
2019-04-29T06:41:09.753Z,22.17
2019-04-29T06:43:44.780Z,21.82
2019-04-29T06:46:17.770Z,17.25
2019-04-29T06:48:50.787Z,16.85
2019-04-29T06:51:23.694Z,21.65
2019-04-29T06:53:57.777Z,18.75
2019-04-29T06:56:30.778Z,24.45
2019-04-29T06:59:07.510Z,22.62
2019-04-29T07:01:38.765Z,22.67
2019-04-29T07:04:11.724Z,20.68
2019-04-29T07:06:56.675Z,19.05
2019-04-29T07:09:19.266Z,19.40
2019-04-29T07:11:52.168Z,22.40
2019-04-29T07:14:28.310Z,21.82
2019-04-29T07:17:00.836Z,23.77
2019-04-29T07:19:34.365Z,22.62
2019-04-29T07:22:07.268Z,18.23
2019-04-29T07:24:40.165Z,21.77
2019-04-29T07:27:13.061Z,18.70
2019-04-29T07:29:45.945Z,18.77
2019-04-29T07:32:18.760Z,22.60
2019-04-29T07:34:51.704Z,20.27
2019-04-29T07:37:24.664Z,15.53
2019-04-29T07:39:57.505Z,17.82
2019-04-29T07:42:33.233Z,22.20
2019-04-29T07:45:43.388Z,19.20
2019-04-29T07:48:06.472Z,23.15
2019-04-29T07:50:39.993Z,18.42
2019-04-29T07:53:12.858Z,23.05
2019-04-29T07:55:45.918Z,19.37
2019-04-29T07:58:23.080Z,18.23
2019-04-29T08:01:01.028Z,22.07
2019-04-29T08:03:34.018Z,19.40
2019-04-29T08:06:07.284Z,20.45
2019-04-29T08:08:53.913Z,23.57
2019-04-29T08:11:15.184Z,25.15
2019-04-29T08:13:51.132Z,21.52
2019-04-29T08:16:24.097Z,18.32
2019-04-29T08:18:57.076Z,19.40
2019-04-29T08:21:30.013Z,22.85
2019-04-29T08:24:02.961Z,19.70
2019-04-29T08:26:38.256Z,19.87
2019-04-29T08:29:10.658Z,21.50
2019-04-29T08:31:43.616Z,24.23
2019-04-29T08:34:18.686Z,23.65
2019-04-29T08:36:51.167Z,19.07
2019-04-29T08:39:25.152Z,19.50
2019-04-29T08:42:03.725Z,21.82
2019-04-29T08:44:54.721Z,19.23
2019-04-29T08:47:31.611Z,25.05
2019-04-29T08:50:05.289Z,21.80
2019-04-29T08:52:38.694Z,21.17
2019-04-29T08:55:11.823Z,23.80
2019-04-29T08:57:44.879Z,23.27
2019-04-29T09:00:19.445Z,20.82
2019-04-29T09:02:52.644Z,22.27
2019-04-29T09:05:28.351Z,22.30
2019-04-29T09:08:01.329Z,22.10
2019-04-29T09:10:36.815Z,24.07
2019-04-29T09:13:09.037Z,23.40
2019-04-29T09:15:47.512Z,21.60
2019-04-29T09:18:20.516Z,24.57
2019-04-29T09:20:54.616Z,21.93
2019-04-29T09:23:30.066Z,18.95
2019-04-29T09:26:20.275Z,15.15
2019-04-29T09:28:53.208Z,22.07
2019-04-29T09:31:26.285Z,21.15
2019-04-29T09:34:06.319Z,18.80
2019-04-29T09:36:34.052Z,20.35
2019-04-29T09:39:07.591Z,23.60
2019-04-29T09:41:49.375Z,22.65
2019-04-29T09:44:44.528Z,23.10
2019-04-29T09:47:14.881Z,20.57
2019-04-29T09:49:47.836Z,18.12
2019-04-29T09:52:20.791Z,19.00
2019-04-29T09:54:53.872Z,18.37
2019-04-29T09:57:26.907Z,16.62
2019-04-29T10:00:11.674Z,17.77
2019-04-29T10:02:49.791Z,21.37
2019-04-29T10:05:50.611Z,18.65
2019-04-29T10:08:23.552Z,19.45
2019-04-29T10:10:57.484Z,17.30
2019-04-29T10:13:30.372Z,17.52
2019-04-29T10:16:31.696Z,17.27
2019-04-29T10:19:27.583Z,17.32
2019-04-29T10:22:00.652Z,16.75
2019-04-29T10:24:33.654Z,15.65
2019-04-29T10:27:07.887Z,15.85
2019-04-29T10:29:42.450Z,15.40
2019-04-29T10:32:15.354Z,16.45
2019-04-29T10:34:48.288Z,14.40
2019-04-29T10:37:23.221Z,16.95
2019-04-29T10:40:11.093Z,16.87
2019-04-29T10:42:47.353Z,16.30
2019-04-29T10:45:34.471Z,16.70
2019-04-29T10:48:29.789Z,16.57
2019-04-29T10:51:04.082Z,17.00
2019-04-29T10:53:37.106Z,15.48
2019-04-29T10:56:10.151Z,15.78
2019-04-29T10:58:43.339Z,15.23
2019-04-29T11:02:26.136Z,13.85
2019-04-29T11:05:11.893Z,12.35
2019-04-29T11:07:44.409Z,13.98
2019-04-29T11:10:25.918Z,13.88
2019-04-29T11:12:59.390Z,13.83
2019-04-29T11:15:35.522Z,12.53
2019-04-29T11:18:08.673Z,13.58
2019-04-29T11:20:44.538Z,12.53
2019-04-29T11:23:29.138Z,14.95
2019-04-29T11:26:20.582Z,16.67
2019-04-29T11:28:54.871Z,15.08
2019-04-29T11:31:27.863Z,13.93
2019-04-29T11:34:33.407Z,15.08
2019-04-29T11:37:08.322Z,11.65
2019-04-29T11:39:41.234Z,13.53
2019-04-29T11:42:14.934Z,14.38
2019-04-29T11:44:48.045Z,11.90
2019-04-29T11:47:24.895Z,12.93
2019-04-29T11:50:07.593Z,15.65
2019-04-29T11:52:40.807Z,13.88
2019-04-29T11:55:18.315Z,15.93
2019-04-29T11:57:53.488Z,14.07
2019-04-29T12:00:52.088Z,12.85
2019-04-29T12:03:29.061Z,13.30
2019-04-29T12:06:03.701Z,13.90
2019-04-29T12:08:38.398Z,11.85
2019-04-29T12:11:13.443Z,13.45
2019-04-29T12:14:05.157Z,12.75
2019-04-29T12:16:41.928Z,14.50
2019-04-29T12:19:21.359Z,15.25
2019-04-29T12:21:52.475Z,14.60
2019-04-29T12:24:25.291Z,13.58
2019-04-29T12:26:58.274Z,13.53
2019-04-29T12:29:31.161Z,15.68
2019-04-29T12:32:27.603Z,14.18
2019-04-29T12:35:10.637Z,13.55
2019-04-29T12:38:11.025Z,14.10
2019-04-29T12:40:59.555Z,12.65
2019-04-29T12:43:59.160Z,14.05
2019-04-29T12:46:42.099Z,12.50
2019-04-29T12:49:15.452Z,12.70
2019-04-29T12:51:48.727Z,13.95
2019-04-29T12:54:21.906Z,12.07
2019-04-29T12:56:55.897Z,11.60
2019-04-29T12:59:30.486Z,12.35
2019-04-29T13:02:24.450Z,10.30
2019-04-29T13:05:19.393Z,10.80
2019-04-29T13:08:04.201Z,9.03
2019-04-29T13:10:49.113Z,8.20
2019-04-29T13:13:22.197Z,10.23
2019-04-29T13:16:12.690Z,9.73
2019-04-29T13:19:11.505Z,9.53
2019-04-29T13:21:39.699Z,10.10
2019-04-29T13:24:22.443Z,10.35
2019-04-29T13:26:47.369Z,9.10
2019-04-29T13:29:31.858Z,9.83
2019-04-29T13:31:54.871Z,8.83
2019-04-29T13:34:35.429Z,10.82
2019-04-29T13:37:18.429Z,8.33
2019-04-29T13:39:42.942Z,9.13
2019-04-29T13:42:16.117Z,9.38
2019-04-29T13:45:05.131Z,8.83
2019-04-29T13:47:40.994Z,9.13
2019-04-29T13:50:38.013Z,9.63
2019-04-29T13:52:57.196Z,8.68
2019-04-29T13:55:47.865Z,8.98
2019-04-29T13:58:05.978Z,8.55
2019-04-29T14:00:49.283Z,8.63
2019-04-29T14:03:27.434Z,10.18
2019-04-29T14:06:04.170Z,8.68
2019-04-29T14:08:35.197Z,9.95
2019-04-29T14:11:08.152Z,10.18
2019-04-29T14:13:43.261Z,8.90
2019-04-29T14:16:19.123Z,8.98
2019-04-29T14:18:50.735Z,8.90
2019-04-29T14:21:25.827Z,9.40
2019-04-29T14:23:58.407Z,9.28
2019-04-29T14:26:31.280Z,8.10
2019-04-29T14:29:04.294Z,9.60
2019-04-29T14:31:37.167Z,10.30
2019-04-29T14:34:34.858Z,9.25
2019-04-29T14:37:25.342Z,9.00
2019-04-29T14:39:41.005Z,7.58
2019-04-29T14:42:32.808Z,11.18
2019-04-29T14:45:23.793Z,10.03
2019-04-29T14:48:17.755Z,8.98
2019-04-29T14:50:54.237Z,9.13
2019-04-29T14:53:26.312Z,6.87
2019-04-29T14:55:59.302Z,10.95
2019-04-29T14:58:32.522Z,8.88
2019-04-29T15:01:31.177Z,9.40
2019-04-29T15:04:18.000Z,13.32
2019-04-29T15:06:42.328Z,9.13
2019-04-29T15:09:17.689Z,9.83
2019-04-29T15:12:04.404Z,8.30
2019-04-29T15:14:47.611Z,9.88
2019-04-29T15:17:44.720Z,10.13
2019-04-29T15:20:30.381Z,9.43
2019-04-29T15:23:00.511Z,9.50
2019-04-29T15:25:33.413Z,9.05
2019-04-29T15:28:06.386Z,10.82
2019-04-29T15:30:39.395Z,8.20
2019-04-29T15:33:12.341Z,8.93
2019-04-29T15:35:45.818Z,9.28
2019-04-29T15:38:18.762Z,9.05
2019-04-29T15:40:51.592Z,9.68
2019-04-29T15:43:46.130Z,9.03
2019-04-29T15:45:59.030Z,8.50
2019-04-29T15:48:31.946Z,8.18
2019-04-29T15:51:09.305Z,7.72
2019-04-29T15:53:39.637Z,9.80
2019-04-29T15:56:27.573Z,11.10
2019-04-29T15:58:47.452Z,10.50
2019-04-29T16:01:27.118Z,9.80
2019-04-29T16:03:57.313Z,11.03
2019-04-29T16:07:07.745Z,7.92
2019-04-29T16:10:20.448Z,8.78
2019-04-29T16:12:53.051Z,9.00
2019-04-29T16:15:25.864Z,8.75
2019-04-29T16:17:58.793Z,9.53
2019-04-29T16:20:31.754Z,9.10
2019-04-29T16:23:04.674Z,7.70
2019-04-29T16:25:40.699Z,8.23
2019-04-29T16:28:12.094Z,8.65
2019-04-29T16:30:46.198Z,8.58
2019-04-29T16:33:19.064Z,8.53
2019-04-29T16:35:52.007Z,10.08
2019-04-29T16:38:25.090Z,8.55
2019-04-29T16:41:06.333Z,8.38
2019-04-29T16:43:41.695Z,7.87
2019-04-29T16:46:23.306Z,8.48
2019-04-29T16:49:00.933Z,8.65
2019-04-29T16:51:35.943Z,8.53
2019-04-29T16:54:20.526Z,9.95
2019-04-29T16:56:53.650Z,7.12
2019-04-29T16:59:28.348Z,10.15
2019-04-29T17:02:04.485Z,8.15
2019-04-29T17:04:39.378Z,8.13
2019-04-29T17:07:24.315Z,8.75
2019-04-29T17:10:19.211Z,8.88
2019-04-29T17:12:52.823Z,9.90
2019-04-29T17:15:31.119Z,9.30
2019-04-29T17:18:05.906Z,10.18
2019-04-29T17:20:40.677Z,9.58
2019-04-29T17:23:13.856Z,9.60
2019-04-29T17:25:52.289Z,10.45
2019-04-29T17:28:31.637Z,8.48
2019-04-29T17:31:23.858Z,9.08
2019-04-29T17:34:05.207Z,7.22
2019-04-29T17:36:39.773Z,12.28
2019-04-29T17:39:13.062Z,10.18
2019-04-29T17:41:48.206Z,9.13
2019-04-29T17:44:40.096Z,10.03
2019-04-29T17:47:37.610Z,8.38
2019-04-29T17:50:30.764Z,9.50
2019-04-29T17:53:05.170Z,7.80
2019-04-29T17:55:45.352Z,7.62
2019-04-29T17:58:25.874Z,6.75
2019-04-29T18:01:17.826Z,11.38
2019-04-29T18:04:11.725Z,10.05
2019-04-29T18:06:51.651Z,9.13
2019-04-29T18:09:47.538Z,11.18
2019-04-29T18:12:24.734Z,10.45
2019-04-29T18:14:57.632Z,9.63
2019-04-29T18:17:36.099Z,12.00
2019-04-29T18:20:33.082Z,11.65
2019-04-29T18:23:21.743Z,11.00
2019-04-29T18:26:16.637Z,11.15
2019-04-29T18:28:49.989Z,13.38
2019-04-29T18:31:26.485Z,11.53
2019-04-29T18:34:00.206Z,11.45
2019-04-29T18:36:35.184Z,10.85
2019-04-29T18:39:11.292Z,10.10
2019-04-29T18:41:44.802Z,10.70
2019-04-29T18:44:19.554Z,10.03
2019-04-29T18:46:53.878Z,11.57
2019-04-29T18:49:28.124Z,9.83
2019-04-29T18:52:02.284Z,11.22
2019-04-29T18:54:36.680Z,12.33
2019-04-29T18:57:09.809Z,12.58
2019-04-29T18:59:42.767Z,16.37
2019-04-29T19:02:15.775Z,14.00
2019-04-29T19:04:56.436Z,13.13
2019-04-29T19:07:31.932Z,12.03
2019-04-29T19:10:09.043Z,13.28
2019-04-29T19:12:39.410Z,13.60
2019-04-29T19:15:12.977Z,13.13
2019-04-29T19:17:58.293Z,13.10
2019-04-29T19:20:20.811Z,10.00
2019-04-29T19:23:05.423Z,9.68
2019-04-29T19:25:28.421Z,8.93
2019-04-29T19:28:11.777Z,13.28
2019-04-29T19:30:37.078Z,9.33
2019-04-29T19:33:12.214Z,9.23
2019-04-29T19:35:45.288Z,12.35
2019-04-29T19:38:18.271Z,10.75
2019-04-29T19:40:54.796Z,9.60
2019-04-29T19:43:28.572Z,8.35
2019-04-29T19:46:01.910Z,11.48
2019-04-29T19:48:36.672Z,14.58
2019-04-29T19:51:18.027Z,12.35
2019-04-29T19:53:49.443Z,10.53
2019-04-29T19:56:24.375Z,8.55
2019-04-29T19:58:57.996Z,9.48
2019-04-29T20:01:32.287Z,9.73
2019-04-29T20:04:35.568Z,8.13
2019-04-29T20:07:10.495Z,8.43
2019-04-29T20:09:47.460Z,9.18
2019-04-29T20:12:19.540Z,10.43
2019-04-29T20:14:58.678Z,8.03
2019-04-29T20:17:59.236Z,10.55
2019-04-29T20:20:40.609Z,8.95
2019-04-29T20:23:24.750Z,9.10
2019-04-29T20:25:52.925Z,8.20
2019-04-29T20:28:26.424Z,7.78
2019-04-29T20:31:15.296Z,7.37
2019-04-29T20:33:35.909Z,9.10
2019-04-29T20:36:10.911Z,7.55
2019-04-29T20:38:45.481Z,8.83
2019-04-29T20:41:36.830Z,7.10
2019-04-29T20:43:56.258Z,6.83
2019-04-29T20:46:44.563Z,7.28
2019-04-29T20:49:06.338Z,6.17
2019-04-29T20:51:49.673Z,7.97
2019-04-29T20:54:20.592Z,7.03
2019-04-29T20:57:02.787Z,6.87
2019-04-29T20:59:35.875Z,7.95
2019-04-29T21:02:12.552Z,5.85
2019-04-29T21:04:47.315Z,6.03
2019-04-29T21:07:23.946Z,8.05
2019-04-29T21:09:55.911Z,6.75
2019-04-29T21:12:50.609Z,8.33
2019-04-29T21:15:36.129Z,8.05
2019-04-29T21:18:10.284Z,6.58
2019-04-29T21:20:45.076Z,6.17
2019-04-29T21:23:18.980Z,6.70
2019-04-29T21:25:52.220Z,7.90
2019-04-29T21:28:25.125Z,6.92
2019-04-29T21:30:58.083Z,6.67
2019-04-29T21:33:31.326Z,6.87
2019-04-29T21:36:15.485Z,7.28
2019-04-29T21:39:01.855Z,8.28
2019-04-29T21:41:41.635Z,8.03
2019-04-29T21:44:14.439Z,5.28
2019-04-29T21:46:47.641Z,5.40
2019-04-29T21:49:20.519Z,6.17
2019-04-29T21:51:55.391Z,5.90
2019-04-29T21:54:28.025Z,8.08
2019-04-29T21:57:01.163Z,7.53
2019-04-29T21:59:35.660Z,7.75
2019-04-29T22:02:11.397Z,7.30
2019-04-29T22:04:44.979Z,6.22
2019-04-29T22:07:19.504Z,6.60
2019-04-29T22:09:52.462Z,7.53
2019-04-29T22:12:25.366Z,8.20
2019-04-29T22:14:59.498Z,8.30
2019-04-29T22:17:33.843Z,8.68
2019-04-29T22:20:10.978Z,8.13
2019-04-29T22:22:45.267Z,6.50
2019-04-29T22:25:18.763Z,7.53
2019-04-29T22:27:51.780Z,8.65
2019-04-29T22:30:26.466Z,9.03
2019-04-29T22:32:59.969Z,6.92
2019-04-29T22:35:37.258Z,6.85
2019-04-29T22:38:12.638Z,7.33
2019-04-29T22:40:45.036Z,7.08
2019-04-29T22:43:25.328Z,6.58
2019-04-29T22:45:58.391Z,7.25
2019-04-29T22:48:31.336Z,6.45
2019-04-29T22:51:05.728Z,7.30
2019-04-29T22:53:40.057Z,6.95
2019-04-29T22:56:15.804Z,7.25
2019-04-29T22:58:48.270Z,4.67
2019-04-29T23:01:21.373Z,7.55
2019-04-29T23:03:55.372Z,6.90
2019-04-29T23:06:28.549Z,6.58
2019-04-29T23:09:01.459Z,6.92
2019-04-29T23:11:39.351Z,7.22
2019-04-29T23:14:10.559Z,6.78
2019-04-29T23:16:45.463Z,7.00
2019-04-29T23:19:19.557Z,6.53
2019-04-29T23:22:10.621Z,7.58
2019-04-29T23:24:55.759Z,7.67
2019-04-29T23:27:28.927Z,6.90
2019-04-29T23:30:01.782Z,6.80
2019-04-29T23:32:35.240Z,6.33
2019-04-29T23:35:10.017Z,6.45
2019-04-29T23:37:42.964Z,6.55
2019-04-29T23:40:15.905Z,6.60
2019-04-29T23:42:49.291Z,6.58
2019-04-29T23:45:22.442Z,6.20
2019-04-29T23:47:55.609Z,6.87
2019-04-29T23:50:28.452Z,6.35
2019-04-29T23:53:01.340Z,6.53
2019-04-29T23:55:35.611Z,6.08
2019-04-29T23:58:17.067Z,5.00
